createdAt,value
2023-02-15T00:02:45.328Z,45.39
2023-02-15T00:07:51.474Z,48.02
2023-02-15T00:12:58.353Z,45.31
2023-02-15T00:18:04.232Z,44.87
2023-02-15T00:23:09.740Z,44.54
2023-02-15T00:28:15.102Z,45.57
2023-02-15T00:33:19.688Z,45.73
2023-02-15T00:38:24.333Z,44.61
2023-02-15T00:43:30.456Z,45.84
2023-02-15T00:48:35.463Z,45.63
2023-02-15T00:53:42.528Z,45.32
2023-02-15T00:58:47.211Z,45.46
2023-02-15T01:03:52.049Z,45.51
2023-02-15T01:08:56.688Z,46.14
2023-02-15T01:14:03.192Z,48.02
2023-02-15T01:19:08.428Z,45.59
2023-02-15T01:24:17.124Z,45.87
2023-02-15T01:29:21.782Z,45.75
2023-02-15T01:34:26.324Z,51.01
2023-02-15T01:39:31.011Z,45.53
2023-02-15T01:44:51.016Z,45.52
2023-02-15T01:50:20.680Z,44.21
2023-02-15T01:55:29.528Z,46.66
2023-02-15T02:00:35.758Z,45.69
2023-02-15T02:05:43.479Z,45.38
2023-02-15T02:10:50.297Z,44.18
2023-02-15T02:16:25.125Z,43.20
2023-02-15T02:22:06.437Z,43.96
2023-02-15T02:27:30.574Z,44.62
2023-02-15T02:32:56.556Z,43.65
2023-02-15T02:38:14.855Z,44.06
2023-02-15T02:43:28.602Z,43.78
2023-02-15T02:48:35.051Z,43.69
2023-02-15T02:53:40.128Z,43.02
2023-02-15T02:59:02.253Z,43.39
2023-02-15T03:04:25.228Z,42.54
2023-02-15T03:09:45.154Z,43.88
2023-02-15T03:14:58.855Z,42.77
2023-02-15T03:20:38.884Z,41.64
2023-02-15T03:26:07.084Z,42.79
2023-02-15T03:31:16.258Z,41.78
2023-02-15T03:36:23.570Z,42.22
2023-02-15T03:41:35.251Z,41.51
2023-02-15T03:46:50.572Z,41.44
2023-02-15T03:52:00.906Z,40.81
2023-02-15T03:57:27.554Z,40.90
2023-02-15T04:02:41.085Z,41.29
2023-02-15T04:07:45.822Z,41.05
2023-02-15T04:12:50.726Z,41.16
2023-02-15T04:17:55.400Z,41.07
2023-02-15T04:23:17.897Z,40.67
2023-02-15T04:28:23.693Z,40.75
2023-02-15T04:33:32.338Z,40.79
2023-02-15T04:38:37.708Z,40.39
2023-02-15T04:43:43.364Z,40.35
2023-02-15T04:49:01.522Z,40.18
2023-02-15T04:54:16.736Z,40.28
2023-02-15T04:59:29.637Z,39.85
2023-02-15T05:04:35.335Z,38.58
2023-02-15T05:09:41.867Z,38.62
2023-02-15T05:14:51.727Z,39.49
2023-02-15T05:19:56.787Z,39.64
2023-02-15T05:25:20.675Z,39.50
2023-02-15T05:30:27.587Z,38.69
2023-02-15T05:35:39.312Z,39.17
2023-02-15T05:41:34.148Z,39.53
2023-02-15T05:47:05.048Z,38.08
2023-02-15T05:52:22.153Z,37.72
2023-02-15T05:57:45.652Z,37.82
2023-02-15T06:09:59.424Z,36.36
2023-02-15T06:15:08.647Z,37.97
2023-02-15T06:20:16.047Z,38.33
2023-02-15T06:25:22.068Z,37.81
2023-02-15T06:30:28.173Z,37.95
2023-02-15T06:35:33.245Z,37.82
2023-02-15T06:40:37.900Z,37.80
2023-02-15T06:45:45.175Z,36.79
2023-02-15T06:50:51.011Z,37.40
2023-02-15T06:55:55.636Z,37.04
2023-02-15T07:01:00.599Z,37.65
2023-02-15T07:06:10.307Z,33.21
2023-02-15T07:11:33.083Z,34.23
2023-02-15T07:16:37.689Z,34.16
2023-02-15T07:21:42.321Z,36.07
2023-02-15T07:26:48.538Z,36.88
2023-02-15T07:31:53.765Z,35.43
2023-02-15T07:36:58.256Z,36.56
2023-02-15T07:42:03.438Z,35.44
2023-02-15T07:47:10.336Z,36.20
2023-02-15T07:52:15.190Z,36.61
2023-02-15T07:57:19.937Z,36.81
2023-02-15T08:02:24.644Z,36.68
2023-02-15T08:07:29.272Z,35.77
2023-02-15T08:12:34.013Z,36.41
2023-02-15T08:17:39.760Z,36.48
2023-02-15T08:22:44.436Z,36.20
2023-02-15T08:27:49.024Z,34.28
2023-02-15T08:32:53.685Z,35.00
2023-02-15T08:37:58.294Z,35.92
2023-02-15T08:43:02.917Z,36.39
2023-02-15T08:48:07.667Z,36.42
2023-02-15T08:53:12.297Z,36.43
2023-02-15T08:58:16.816Z,36.62
2023-02-15T09:03:22.300Z,36.23
2023-02-15T09:08:28.225Z,35.62
2023-02-15T09:13:33.983Z,35.80
2023-02-15T09:18:41.438Z,36.56
2023-02-15T09:23:49.140Z,36.43
2023-02-15T09:29:00.788Z,36.35
2023-02-15T09:34:06.283Z,36.70
2023-02-15T09:39:16.068Z,36.93
2023-02-15T09:44:39.440Z,36.38
2023-02-15T09:50:26.364Z,36.65
2023-02-15T09:55:57.360Z,36.75
2023-02-15T10:01:24.747Z,36.45
2023-02-15T10:06:45.766Z,36.17
2023-02-15T10:11:59.572Z,36.35
2023-02-15T10:17:18.826Z,36.87
2023-02-15T10:22:52.090Z,36.43
2023-02-15T10:27:56.710Z,36.66
2023-02-15T10:33:28.609Z,37.09
2023-02-15T10:38:51.887Z,37.86
2023-02-15T10:44:14.895Z,37.52
2023-02-15T10:49:59.239Z,37.45
2023-02-15T10:55:41.962Z,38.13
2023-02-15T11:00:53.156Z,38.15
2023-02-15T11:06:17.614Z,38.07
2023-02-15T11:11:26.269Z,37.78
2023-02-15T11:16:40.179Z,38.05
2023-02-15T11:21:52.347Z,38.13
2023-02-15T11:27:09.197Z,37.67
2023-02-15T11:32:35.901Z,38.27
2023-02-15T11:37:49.142Z,38.54
2023-02-15T11:42:58.960Z,38.23
2023-02-15T11:48:11.199Z,38.72
2023-02-15T11:53:20.546Z,38.51
2023-02-15T11:58:45.788Z,39.11
2023-02-15T12:03:52.103Z,39.88
2023-02-15T12:09:05.985Z,39.02
2023-02-15T12:14:14.094Z,41.12
2023-02-15T12:19:46.917Z,40.75
2023-02-15T12:24:54.712Z,41.29
2023-02-15T12:30:26.049Z,41.89
2023-02-15T12:35:37.032Z,42.18
2023-02-15T12:40:44.088Z,42.81
2023-02-15T12:45:50.269Z,43.27
2023-02-15T12:50:58.415Z,42.80
2023-02-15T12:56:07.476Z,43.07
2023-02-15T13:01:15.944Z,42.53
2023-02-15T13:06:21.708Z,43.54
2023-02-15T13:11:36.494Z,42.64
2023-02-15T13:16:44.965Z,43.15
2023-02-15T13:21:53.181Z,43.11
2023-02-15T13:27:14.617Z,43.58
2023-02-15T13:32:41.744Z,42.38
2023-02-15T13:37:50.704Z,43.31
2023-02-15T13:43:15.611Z,43.43
2023-02-15T13:48:45.008Z,43.39
2023-02-15T13:54:20.796Z,43.38
2023-02-15T13:59:49.604Z,42.32
2023-02-15T14:05:20.511Z,44.01
2023-02-15T14:10:48.377Z,42.79
2023-02-15T14:16:13.414Z,43.29
2023-02-15T14:21:26.402Z,43.17
2023-02-15T14:26:48.900Z,43.48
2023-02-15T14:32:03.173Z,43.98
2023-02-15T14:37:09.466Z,42.61
2023-02-15T14:42:33.229Z,43.95
2023-02-15T14:47:46.118Z,44.36
2023-02-15T14:53:40.796Z,43.28
2023-02-15T14:59:16.445Z,43.91
2023-02-15T15:04:39.626Z,43.04
2023-02-15T15:09:49.856Z,45.90
2023-02-15T15:14:57.406Z,44.33
2023-02-15T15:20:05.540Z,43.00
2023-02-15T15:25:31.445Z,43.98
2023-02-15T15:30:36.319Z,44.56
2023-02-15T15:36:23.088Z,43.32
2023-02-15T15:41:34.878Z,45.61
2023-02-15T15:46:55.052Z,45.06
2023-02-15T15:52:12.741Z,45.20
2023-02-15T15:57:46.098Z,44.65
2023-02-15T16:03:01.165Z,46.21
2023-02-15T16:08:06.085Z,45.56
2023-02-15T16:13:16.435Z,44.52
2023-02-15T16:18:27.443Z,44.43
2023-02-15T16:23:48.274Z,44.78
2023-02-15T16:28:54.397Z,43.54
2023-02-15T16:33:59.043Z,43.72
2023-02-15T16:39:21.216Z,43.77
2023-02-15T16:44:25.869Z,45.21
2023-02-15T16:49:31.896Z,44.99
2023-02-15T16:54:38.532Z,44.99
2023-02-15T16:59:48.749Z,45.21
2023-02-15T17:05:13.694Z,44.17
2023-02-15T17:10:47.673Z,44.65
2023-02-15T17:16:25.700Z,44.40
2023-02-15T17:21:44.006Z,43.84
2023-02-15T17:26:54.248Z,44.97
2023-02-15T17:32:00.423Z,45.23
2023-02-15T17:37:06.320Z,45.42
2023-02-15T17:42:11.105Z,45.00
2023-02-15T17:47:28.900Z,45.28
2023-02-15T17:52:34.864Z,46.05
2023-02-15T17:57:40.504Z,45.56
2023-02-15T18:03:03.004Z,46.48
2023-02-15T18:08:31.759Z,45.75
2023-02-15T18:13:36.200Z,46.49
2023-02-15T18:18:41.931Z,46.69
2023-02-15T18:23:47.067Z,45.98
2023-02-15T18:28:52.788Z,45.33
2023-02-15T18:34:01.096Z,45.54
2023-02-15T18:39:14.842Z,46.54
2023-02-15T18:44:19.483Z,45.79
2023-02-15T18:49:25.840Z,45.96
2023-02-15T18:54:32.842Z,46.41
2023-02-15T18:59:37.952Z,45.75
2023-02-15T19:04:43.203Z,47.96
2023-02-15T19:09:52.156Z,45.65
2023-02-15T19:14:59.578Z,46.64
2023-02-15T19:20:04.372Z,47.02
2023-02-15T19:25:10.882Z,47.50
2023-02-15T19:30:21.352Z,46.39
2023-02-15T19:35:28.668Z,46.65
2023-02-15T19:40:37.941Z,45.73
2023-02-15T19:45:42.822Z,46.80
2023-02-15T19:50:49.426Z,46.42
2023-02-15T19:55:56.470Z,47.39
2023-02-15T20:01:01.882Z,46.24
2023-02-15T20:06:07.732Z,47.18
2023-02-15T20:11:14.588Z,47.23
2023-02-15T20:16:20.535Z,47.88
2023-02-15T20:21:25.814Z,47.38
2023-02-15T20:26:34.224Z,47.94
2023-02-15T20:31:41.801Z,45.98
2023-02-15T20:36:47.107Z,46.31
2023-02-15T20:41:52.207Z,45.98
2023-02-15T20:46:59.139Z,45.42
2023-02-15T20:52:06.713Z,46.07
2023-02-15T20:57:15.649Z,50.07
2023-02-15T21:02:24.630Z,46.63
2023-02-15T21:07:30.654Z,47.11
2023-02-15T21:12:36.752Z,47.31
2023-02-15T21:17:42.958Z,50.87
2023-02-15T21:22:49.300Z,47.81
2023-02-15T21:27:54.428Z,47.20
2023-02-15T21:33:00.620Z,46.61
2023-02-15T21:38:08.208Z,46.58
2023-02-15T21:43:44.157Z,45.96
2023-02-15T21:48:49.660Z,47.32
2023-02-15T21:53:56.575Z,46.34
2023-02-15T21:59:01.611Z,48.04
2023-02-15T22:04:17.778Z,46.12
2023-02-15T22:09:25.592Z,48.73
2023-02-15T22:14:35.466Z,48.12
2023-02-15T22:19:41.711Z,46.83
2023-02-15T22:24:48.425Z,48.94
2023-02-15T22:29:54.154Z,47.74
2023-02-15T22:35:00.795Z,46.37
2023-02-15T22:40:06.508Z,46.91
2023-02-15T22:45:17.270Z,47.45
2023-02-15T22:50:27.193Z,48.36
2023-02-15T22:55:39.174Z,46.40
2023-02-15T23:00:44.453Z,47.89
2023-02-15T23:05:50.296Z,47.39
2023-02-15T23:10:58.376Z,47.47
2023-02-15T23:16:06.644Z,46.49
2023-02-15T23:21:25.530Z,47.90
2023-02-15T23:26:32.850Z,48.26
2023-02-15T23:31:42.075Z,47.46
2023-02-15T23:36:46.627Z,48.49
2023-02-15T23:41:51.279Z,48.27
2023-02-15T23:46:59.363Z,47.25
2023-02-15T23:52:04.099Z,47.43
2023-02-15T23:57:13.109Z,46.83
